sensor_id;sensor_type;location;lat;lon;timestamp;P1;durP1;ratioP1;P2;durP2;ratioP2
44000;SDS011;29660;42.892;24.710;2023-07-13T00:01:50;13.63;;;10.60;;
44000;SDS011;29660;42.892;24.710;2023-07-13T00:07:13;11.50;;;10.30;;
44000;SDS011;29660;42.892;24.710;2023-07-13T00:12:36;11.93;;;10.68;;
44000;SDS011;29660;42.892;24.710;2023-07-13T00:17:59;11.30;;;9.93;;
44000;SDS011;29660;42.892;24.710;2023-07-13T00:23:22;10.90;;;9.85;;
44000;SDS011;29660;42.892;24.710;2023-07-13T00:28:44;11.30;;;9.77;;
44000;SDS011;29660;42.892;24.710;2023-07-13T00:34:06;11.98;;;10.35;;
44000;SDS011;29660;42.892;24.710;2023-07-13T00:39:29;11.07;;;9.95;;
44000;SDS011;29660;42.892;24.710;2023-07-13T00:45:01;12.70;;;10.15;;
44000;SDS011;29660;42.892;24.710;2023-07-13T00:50:50;10.20;;;8.85;;
44000;SDS011;29660;42.892;24.710;2023-07-13T00:56:15;12.00;;;9.30;;
44000;SDS011;29660;42.892;24.710;2023-07-13T01:01:38;12.05;;;8.65;;
44000;SDS011;29660;42.892;24.710;2023-07-13T01:07:01;11.63;;;9.20;;
44000;SDS011;29660;42.892;24.710;2023-07-13T01:12:23;14.63;;;9.50;;
44000;SDS011;29660;42.892;24.710;2023-07-13T01:17:45;10.38;;;9.20;;
44000;SDS011;29660;42.892;24.710;2023-07-13T01:23:09;12.77;;;8.98;;
44000;SDS011;29660;42.892;24.710;2023-07-13T01:28:32;13.55;;;8.85;;
44000;SDS011;29660;42.892;24.710;2023-07-13T01:33:58;12.70;;;8.90;;
44000;SDS011;29660;42.892;24.710;2023-07-13T01:39:21;10.93;;;9.10;;
44000;SDS011;29660;42.892;24.710;2023-07-13T01:44:43;11.27;;;8.77;;
44000;SDS011;29660;42.892;24.710;2023-07-13T01:50:06;8.70;;;7.80;;
44000;SDS011;29660;42.892;24.710;2023-07-13T01:55:28;9.15;;;7.72;;
44000;SDS011;29660;42.892;24.710;2023-07-13T02:00:51;10.43;;;7.85;;
44000;SDS011;29660;42.892;24.710;2023-07-13T02:06:15;10.75;;;8.20;;
44000;SDS011;29660;42.892;24.710;2023-07-13T02:11:37;10.55;;;8.00;;
44000;SDS011;29660;42.892;24.710;2023-07-13T02:16:59;11.13;;;8.15;;
44000;SDS011;29660;42.892;24.710;2023-07-13T02:22:22;9.45;;;7.72;;
44000;SDS011;29660;42.892;24.710;2023-07-13T02:27:44;12.23;;;8.02;;
44000;SDS011;29660;42.892;24.710;2023-07-13T02:33:06;11.60;;;8.15;;
44000;SDS011;29660;42.892;24.710;2023-07-13T02:38:28;9.70;;;7.57;;
44000;SDS011;29660;42.892;24.710;2023-07-13T02:43:50;10.85;;;7.80;;
44000;SDS011;29660;42.892;24.710;2023-07-13T02:49:13;9.15;;;7.72;;
44000;SDS011;29660;42.892;24.710;2023-07-13T02:54:35;9.85;;;7.90;;
44000;SDS011;29660;42.892;24.710;2023-07-13T02:59:57;8.43;;;7.53;;
44000;SDS011;29660;42.892;24.710;2023-07-13T03:05:19;24.92;;;21.60;;
44000;SDS011;29660;42.892;24.710;2023-07-13T03:10:41;11.57;;;10.38;;
44000;SDS011;29660;42.892;24.710;2023-07-13T03:16:06;10.48;;;7.43;;
44000;SDS011;29660;42.892;24.710;2023-07-13T03:21:29;6.97;;;6.22;;
44000;SDS011;29660;42.892;24.710;2023-07-13T03:26:52;7.15;;;6.45;;
44000;SDS011;29660;42.892;24.710;2023-07-13T03:32:14;10.57;;;6.45;;
44000;SDS011;29660;42.892;24.710;2023-07-13T03:37:37;6.80;;;6.20;;
44000;SDS011;29660;42.892;24.710;2023-07-13T03:43:08;9.18;;;6.68;;
44000;SDS011;29660;42.892;24.710;2023-07-13T03:48:30;9.30;;;6.30;;
44000;SDS011;29660;42.892;24.710;2023-07-13T03:53:54;9.57;;;6.30;;
44000;SDS011;29660;42.892;24.710;2023-07-13T03:59:16;7.35;;;6.15;;
44000;SDS011;29660;42.892;24.710;2023-07-13T04:04:40;10.38;;;6.75;;
44000;SDS011;29660;42.892;24.710;2023-07-13T04:10:02;11.13;;;6.57;;
44000;SDS011;29660;42.892;24.710;2023-07-13T04:15:26;9.70;;;6.53;;
44000;SDS011;29660;42.892;24.710;2023-07-13T04:20:50;12.70;;;6.57;;
44000;SDS011;29660;42.892;24.710;2023-07-13T04:26:13;12.85;;;7.40;;
44000;SDS011;29660;42.892;24.710;2023-07-13T04:31:35;10.05;;;6.93;;
44000;SDS011;29660;42.892;24.710;2023-07-13T04:36:57;10.15;;;6.25;;
44000;SDS011;29660;42.892;24.710;2023-07-13T04:42:20;11.50;;;7.00;;
44000;SDS011;29660;42.892;24.710;2023-07-13T04:47:42;11.50;;;5.90;;
44000;SDS011;29660;42.892;24.710;2023-07-13T04:53:04;12.85;;;6.47;;
44000;SDS011;29660;42.892;24.710;2023-07-13T04:58:28;14.05;;;5.97;;
44000;SDS011;29660;42.892;24.710;2023-07-13T05:03:50;9.20;;;6.32;;
44000;SDS011;29660;42.892;24.710;2023-07-13T05:09:12;9.63;;;6.95;;
44000;SDS011;29660;42.892;24.710;2023-07-13T05:14:34;9.77;;;6.50;;
44000;SDS011;29660;42.892;24.710;2023-07-13T05:19:57;13.48;;;6.50;;
44000;SDS011;29660;42.892;24.710;2023-07-13T05:25:19;13.00;;;6.50;;
44000;SDS011;29660;42.892;24.710;2023-07-13T05:30:45;11.57;;;5.88;;
44000;SDS011;29660;42.892;24.710;2023-07-13T05:36:08;12.68;;;6.20;;
44000;SDS011;29660;42.892;24.710;2023-07-13T05:41:30;11.05;;;6.00;;
44000;SDS011;29660;42.892;24.710;2023-07-13T05:46:52;10.77;;;6.20;;
44000;SDS011;29660;42.892;24.710;2023-07-13T05:52:16;12.88;;;5.30;;
44000;SDS011;29660;42.892;24.710;2023-07-13T05:57:38;11.85;;;5.63;;
44000;SDS011;29660;42.892;24.710;2023-07-13T06:03:01;10.07;;;5.07;;
44000;SDS011;29660;42.892;24.710;2023-07-13T06:08:23;7.80;;;5.03;;
44000;SDS011;29660;42.892;24.710;2023-07-13T06:13:45;9.70;;;5.72;;
44000;SDS011;29660;42.892;24.710;2023-07-13T06:19:07;11.57;;;5.05;;
44000;SDS011;29660;42.892;24.710;2023-07-13T06:24:29;9.02;;;4.20;;
44000;SDS011;29660;42.892;24.710;2023-07-13T06:29:52;7.05;;;4.63;;
44000;SDS011;29660;42.892;24.710;2023-07-13T06:35:14;7.72;;;4.18;;
44000;SDS011;29660;42.892;24.710;2023-07-13T06:40:36;8.65;;;4.38;;
44000;SDS011;29660;42.892;24.710;2023-07-13T06:45:58;7.72;;;5.10;;
44000;SDS011;29660;42.892;24.710;2023-07-13T06:51:20;12.80;;;5.40;;
44000;SDS011;29660;42.892;24.710;2023-07-13T06:56:43;9.35;;;5.20;;
44000;SDS011;29660;42.892;24.710;2023-07-13T07:02:05;10.10;;;4.80;;
44000;SDS011;29660;42.892;24.710;2023-07-13T07:07:28;9.38;;;4.75;;
44000;SDS011;29660;42.892;24.710;2023-07-13T07:12:50;10.05;;;4.10;;
44000;SDS011;29660;42.892;24.710;2023-07-13T07:18:12;8.73;;;4.53;;
44000;SDS011;29660;42.892;24.710;2023-07-13T07:23:34;11.13;;;5.10;;
44000;SDS011;29660;42.892;24.710;2023-07-13T07:28:56;10.55;;;5.30;;
44000;SDS011;29660;42.892;24.710;2023-07-13T07:34:21;6.60;;;4.88;;
44000;SDS011;29660;42.892;24.710;2023-07-13T07:39:44;5.53;;;4.45;;
44000;SDS011;29660;42.892;24.710;2023-07-13T07:45:26;11.13;;;4.95;;
44000;SDS011;29660;42.892;24.710;2023-07-13T07:50:48;7.13;;;5.22;;
44000;SDS011;29660;42.892;24.710;2023-07-13T08:15:03;8.63;;;5.22;;
44000;SDS011;29660;42.892;24.710;2023-07-13T08:20:26;6.82;;;4.93;;
44000;SDS011;29660;42.892;24.710;2023-07-13T08:25:52;6.75;;;4.55;;
44000;SDS011;29660;42.892;24.710;2023-07-13T08:31:15;6.18;;;4.60;;
44000;SDS011;29660;42.892;24.710;2023-07-13T08:36:37;6.95;;;4.75;;
44000;SDS011;29660;42.892;24.710;2023-07-13T08:42:25;10.70;;;4.90;;
44000;SDS011;29660;42.892;24.710;2023-07-13T08:48:02;8.77;;;4.03;;
44000;SDS011;29660;42.892;24.710;2023-07-13T08:53:39;7.35;;;4.20;;
44000;SDS011;29660;42.892;24.710;2023-07-13T08:59:15;9.13;;;4.30;;
44000;SDS011;29660;42.892;24.710;2023-07-13T09:04:42;8.30;;;4.25;;
44000;SDS011;29660;42.892;24.710;2023-07-13T09:15:40;7.40;;;4.00;;
44000;SDS011;29660;42.892;24.710;2023-07-13T09:21:08;9.27;;;3.92;;
44000;SDS011;29660;42.892;24.710;2023-07-13T09:26:33;6.00;;;4.00;;
44000;SDS011;29660;42.892;24.710;2023-07-13T09:31:57;9.25;;;4.65;;
44000;SDS011;29660;42.892;24.710;2023-07-13T09:37:24;9.85;;;4.38;;
44000;SDS011;29660;42.892;24.710;2023-07-13T09:42:55;6.00;;;4.13;;
44000;SDS011;29660;42.892;24.710;2023-07-13T09:48:20;6.75;;;3.70;;
44000;SDS011;29660;42.892;24.710;2023-07-13T09:53:42;5.55;;;4.35;;
44000;SDS011;29660;42.892;24.710;2023-07-13T09:59:10;5.55;;;4.18;;
44000;SDS011;29660;42.892;24.710;2023-07-13T10:04:43;9.93;;;4.13;;
44000;SDS011;29660;42.892;24.710;2023-07-13T10:10:13;7.60;;;4.00;;
44000;SDS011;29660;42.892;24.710;2023-07-13T10:15:38;8.15;;;3.90;;
44000;SDS011;29660;42.892;24.710;2023-07-13T10:21:08;11.30;;;4.20;;
44000;SDS011;29660;42.892;24.710;2023-07-13T10:32:28;8.13;;;3.92;;
44000;SDS011;29660;42.892;24.710;2023-07-13T10:37:52;6.53;;;3.53;;
44000;SDS011;29660;42.892;24.710;2023-07-13T10:43:25;5.88;;;4.03;;
44000;SDS011;29660;42.892;24.710;2023-07-13T10:48:51;7.28;;;4.10;;
44000;SDS011;29660;42.892;24.710;2023-07-13T10:54:37;7.32;;;3.67;;
44000;SDS011;29660;42.892;24.710;2023-07-13T11:10:51;5.50;;;3.80;;
44000;SDS011;29660;42.892;24.710;2023-07-13T11:44:04;4.88;;;3.63;;
44000;SDS011;29660;42.892;24.710;2023-07-13T11:49:29;6.18;;;3.80;;
44000;SDS011;29660;42.892;24.710;2023-07-13T11:54:55;10.40;;;4.63;;
44000;SDS011;29660;42.892;24.710;2023-07-13T12:00:20;5.03;;;3.78;;
44000;SDS011;29660;42.892;24.710;2023-07-13T12:05:58;7.03;;;3.90;;
44000;SDS011;29660;42.892;24.710;2023-07-13T12:16:44;10.70;;;3.67;;
44000;SDS011;29660;42.892;24.710;2023-07-13T12:22:08;7.97;;;4.75;;
44000;SDS011;29660;42.892;24.710;2023-07-13T12:33:00;8.63;;;4.70;;
44000;SDS011;29660;42.892;24.710;2023-07-13T12:38:44;9.95;;;4.47;;
44000;SDS011;29660;42.892;24.710;2023-07-13T12:44:09;7.13;;;4.25;;
44000;SDS011;29660;42.892;24.710;2023-07-13T12:54:58;6.85;;;4.20;;
44000;SDS011;29660;42.892;24.710;2023-07-13T13:00:36;8.07;;;4.53;;
44000;SDS011;29660;42.892;24.710;2023-07-13T13:06:02;9.50;;;4.22;;
44000;SDS011;29660;42.892;24.710;2023-07-13T13:11:30;8.48;;;4.78;;
44000;SDS011;29660;42.892;24.710;2023-07-13T13:16:53;9.32;;;4.68;;
44000;SDS011;29660;42.892;24.710;2023-07-13T13:22:16;6.72;;;4.53;;
44000;SDS011;29660;42.892;24.710;2023-07-13T13:27:42;11.32;;;4.53;;
44000;SDS011;29660;42.892;24.710;2023-07-13T13:33:09;9.93;;;4.63;;
44000;SDS011;29660;42.892;24.710;2023-07-13T13:38:33;7.00;;;3.72;;
44000;SDS011;29660;42.892;24.710;2023-07-13T13:43:56;7.68;;;4.45;;
44000;SDS011;29660;42.892;24.710;2023-07-13T13:49:19;8.70;;;4.60;;
44000;SDS011;29660;42.892;24.710;2023-07-13T13:54:44;7.75;;;4.25;;
44000;SDS011;29660;42.892;24.710;2023-07-13T14:00:08;11.90;;;5.00;;
44000;SDS011;29660;42.892;24.710;2023-07-13T14:05:36;9.15;;;5.05;;
44000;SDS011;29660;42.892;24.710;2023-07-13T14:11:02;12.95;;;4.57;;
44000;SDS011;29660;42.892;24.710;2023-07-13T14:16:28;10.23;;;4.80;;
44000;SDS011;29660;42.892;24.710;2023-07-13T14:21:53;12.75;;;4.80;;
44000;SDS011;29660;42.892;24.710;2023-07-13T14:27:16;11.55;;;4.97;;
44000;SDS011;29660;42.892;24.710;2023-07-13T14:32:38;7.63;;;4.43;;
44000;SDS011;29660;42.892;24.710;2023-07-13T14:38:00;9.35;;;5.13;;
44000;SDS011;29660;42.892;24.710;2023-07-13T14:43:22;9.57;;;4.68;;
44000;SDS011;29660;42.892;24.710;2023-07-13T14:48:46;9.10;;;4.40;;
44000;SDS011;29660;42.892;24.710;2023-07-13T14:54:08;8.75;;;4.60;;
44000;SDS011;29660;42.892;24.710;2023-07-13T14:59:31;9.70;;;4.70;;
44000;SDS011;29660;42.892;24.710;2023-07-13T15:04:53;7.28;;;4.40;;
44000;SDS011;29660;42.892;24.710;2023-07-13T15:10:26;9.10;;;4.55;;
44000;SDS011;29660;42.892;24.710;2023-07-13T15:15:51;6.18;;;4.53;;
44000;SDS011;29660;42.892;24.710;2023-07-13T15:21:20;8.27;;;5.00;;
44000;SDS011;29660;42.892;24.710;2023-07-13T15:26:44;9.00;;;4.32;;
44000;SDS011;29660;42.892;24.710;2023-07-13T15:32:12;9.50;;;4.28;;
44000;SDS011;29660;42.892;24.710;2023-07-13T15:37:36;11.00;;;4.65;;
44000;SDS011;29660;42.892;24.710;2023-07-13T15:42:58;9.80;;;4.45;;
44000;SDS011;29660;42.892;24.710;2023-07-13T15:48:21;13.38;;;4.90;;
44000;SDS011;29660;42.892;24.710;2023-07-13T15:53:45;8.63;;;4.82;;
44000;SDS011;29660;42.892;24.710;2023-07-13T15:59:10;8.20;;;5.53;;
44000;SDS011;29660;42.892;24.710;2023-07-13T16:04:36;9.85;;;5.68;;
44000;SDS011;29660;42.892;24.710;2023-07-13T16:09:58;11.25;;;6.50;;
44000;SDS011;29660;42.892;24.710;2023-07-13T16:15:20;10.52;;;6.28;;
44000;SDS011;29660;42.892;24.710;2023-07-13T16:20:43;15.32;;;7.95;;
44000;SDS011;29660;42.892;24.710;2023-07-13T16:26:15;14.43;;;10.00;;
44000;SDS011;29660;42.892;24.710;2023-07-13T16:31:56;28.15;;;23.95;;
44000;SDS011;29660;42.892;24.710;2023-07-13T16:37:26;14.70;;;7.65;;
44000;SDS011;29660;42.892;24.710;2023-07-13T16:48:16;15.07;;;8.90;;
44000;SDS011;29660;42.892;24.710;2023-07-13T16:53:40;21.33;;;11.07;;
44000;SDS011;29660;42.892;24.710;2023-07-13T16:59:12;12.93;;;7.90;;
44000;SDS011;29660;42.892;24.710;2023-07-13T17:04:36;14.65;;;7.53;;
44000;SDS011;29660;42.892;24.710;2023-07-13T17:09:59;13.30;;;8.30;;
44000;SDS011;29660;42.892;24.710;2023-07-13T17:15:22;14.23;;;7.05;;
44000;SDS011;29660;42.892;24.710;2023-07-13T17:20:49;11.18;;;6.75;;
44000;SDS011;29660;42.892;24.710;2023-07-13T17:26:12;15.75;;;7.35;;
44000;SDS011;29660;42.892;24.710;2023-07-13T17:31:34;14.65;;;7.38;;
44000;SDS011;29660;42.892;24.710;2023-07-13T17:36:56;12.38;;;6.80;;
44000;SDS011;29660;42.892;24.710;2023-07-13T17:42:20;9.55;;;7.70;;
44000;SDS011;29660;42.892;24.710;2023-07-13T17:47:43;15.40;;;8.88;;
44000;SDS011;29660;42.892;24.710;2023-07-13T17:53:12;12.82;;;7.47;;
44000;SDS011;29660;42.892;24.710;2023-07-13T17:58:36;11.70;;;7.38;;
44000;SDS011;29660;42.892;24.710;2023-07-13T18:03:59;14.82;;;8.50;;
44000;SDS011;29660;42.892;24.710;2023-07-13T18:09:23;10.60;;;8.07;;
44000;SDS011;29660;42.892;24.710;2023-07-13T18:14:47;17.00;;;9.07;;
44000;SDS011;29660;42.892;24.710;2023-07-13T18:20:10;16.73;;;9.15;;
44000;SDS011;29660;42.892;24.710;2023-07-13T18:25:38;13.98;;;8.02;;
44000;SDS011;29660;42.892;24.710;2023-07-13T18:31:00;14.68;;;9.43;;
44000;SDS011;29660;42.892;24.710;2023-07-13T18:36:23;12.40;;;7.72;;
44000;SDS011;29660;42.892;24.710;2023-07-13T18:41:45;12.60;;;8.20;;
44000;SDS011;29660;42.892;24.710;2023-07-13T18:47:14;18.20;;;9.63;;
44000;SDS011;29660;42.892;24.710;2023-07-13T18:52:39;9.50;;;7.50;;
44000;SDS011;29660;42.892;24.710;2023-07-13T18:58:05;14.07;;;7.57;;
44000;SDS011;29660;42.892;24.710;2023-07-13T19:03:30;13.13;;;8.65;;
44000;SDS011;29660;42.892;24.710;2023-07-13T19:08:55;11.80;;;8.80;;
44000;SDS011;29660;42.892;24.710;2023-07-13T19:14:20;15.30;;;10.73;;
44000;SDS011;29660;42.892;24.710;2023-07-13T19:19:44;16.93;;;9.80;;
44000;SDS011;29660;42.892;24.710;2023-07-13T19:25:16;16.77;;;8.00;;
44000;SDS011;29660;42.892;24.710;2023-07-13T19:30:38;15.25;;;8.82;;
44000;SDS011;29660;42.892;24.710;2023-07-13T19:36:01;15.13;;;7.47;;
44000;SDS011;29660;42.892;24.710;2023-07-13T19:41:24;13.85;;;8.23;;
44000;SDS011;29660;42.892;24.710;2023-07-13T19:46:49;12.82;;;7.97;;
44000;SDS011;29660;42.892;24.710;2023-07-13T19:52:12;11.82;;;7.50;;
44000;SDS011;29660;42.892;24.710;2023-07-13T19:57:36;31.52;;;20.92;;
44000;SDS011;29660;42.892;24.710;2023-07-13T20:02:58;14.95;;;8.20;;
44000;SDS011;29660;42.892;24.710;2023-07-13T20:08:21;13.38;;;7.32;;
44000;SDS011;29660;42.892;24.710;2023-07-13T20:13:43;13.65;;;7.35;;
44000;SDS011;29660;42.892;24.710;2023-07-13T20:19:10;12.35;;;6.57;;
44000;SDS011;29660;42.892;24.710;2023-07-13T20:24:33;9.13;;;7.22;;
44000;SDS011;29660;42.892;24.710;2023-07-13T20:29:56;13.52;;;7.03;;
44000;SDS011;29660;42.892;24.710;2023-07-13T20:40:45;16.38;;;8.70;;
44000;SDS011;29660;42.892;24.710;2023-07-13T20:46:13;12.73;;;8.57;;
44000;SDS011;29660;42.892;24.710;2023-07-13T20:51:38;13.60;;;8.15;;
44000;SDS011;29660;42.892;24.710;2023-07-13T20:57:00;16.58;;;8.05;;
44000;SDS011;29660;42.892;24.710;2023-07-13T21:02:30;13.20;;;8.10;;
44000;SDS011;29660;42.892;24.710;2023-07-13T21:07:54;12.90;;;7.47;;
44000;SDS011;29660;42.892;24.710;2023-07-13T21:13:16;17.90;;;7.68;;
44000;SDS011;29660;42.892;24.710;2023-07-13T21:18:39;16.27;;;8.52;;
44000;SDS011;29660;42.892;24.710;2023-07-13T21:24:01;12.05;;;7.72;;
44000;SDS011;29660;42.892;24.710;2023-07-13T21:29:23;18.30;;;8.07;;
44000;SDS011;29660;42.892;24.710;2023-07-13T21:34:45;12.63;;;8.48;;
44000;SDS011;29660;42.892;24.710;2023-07-13T21:40:11;13.52;;;8.13;;
44000;SDS011;29660;42.892;24.710;2023-07-13T21:45:37;14.73;;;8.57;;
44000;SDS011;29660;42.892;24.710;2023-07-13T21:50:59;9.95;;;7.45;;
44000;SDS011;29660;42.892;24.710;2023-07-13T21:56:22;14.90;;;8.43;;
44000;SDS011;29660;42.892;24.710;2023-07-13T22:01:45;11.63;;;8.57;;
44000;SDS011;29660;42.892;24.710;2023-07-13T22:07:09;16.45;;;8.00;;
44000;SDS011;29660;42.892;24.710;2023-07-13T22:12:34;10.63;;;7.72;;
44000;SDS011;29660;42.892;24.710;2023-07-13T22:17:57;15.55;;;7.95;;
44000;SDS011;29660;42.892;24.710;2023-07-13T22:23:20;15.30;;;7.28;;
44000;SDS011;29660;42.892;24.710;2023-07-13T22:28:52;13.23;;;7.50;;
44000;SDS011;29660;42.892;24.710;2023-07-13T22:34:19;14.80;;;8.35;;
44000;SDS011;29660;42.892;24.710;2023-07-13T22:39:42;11.30;;;8.02;;
44000;SDS011;29660;42.892;24.710;2023-07-13T22:45:06;15.80;;;7.50;;
44000;SDS011;29660;42.892;24.710;2023-07-13T22:50:30;17.65;;;7.70;;
44000;SDS011;29660;42.892;24.710;2023-07-13T22:55:53;9.60;;;7.68;;
44000;SDS011;29660;42.892;24.710;2023-07-13T23:01:24;14.63;;;7.95;;
44000;SDS011;29660;42.892;24.710;2023-07-13T23:06:48;14.25;;;7.88;;
44000;SDS011;29660;42.892;24.710;2023-07-13T23:12:14;13.65;;;7.53;;
44000;SDS011;29660;42.892;24.710;2023-07-13T23:17:36;14.75;;;7.57;;
44000;SDS011;29660;42.892;24.710;2023-07-13T23:22:59;12.95;;;8.05;;
44000;SDS011;29660;42.892;24.710;2023-07-13T23:28:22;17.35;;;8.43;;
44000;SDS011;29660;42.892;24.710;2023-07-13T23:33:44;14.05;;;7.47;;
44000;SDS011;29660;42.892;24.710;2023-07-13T23:39:16;10.27;;;6.85;;
44000;SDS011;29660;42.892;24.710;2023-07-13T23:44:40;14.57;;;7.03;;
44000;SDS011;29660;42.892;24.710;2023-07-13T23:50:08;13.43;;;7.65;;
44000;SDS011;29660;42.892;24.710;2023-07-13T23:55:32;15.20;;;7.93;;
